»·PEaware :: ASA1131 KSAN-KSEA

ASA1131 :: KSAN-KSEA

FLIGHT INFORMATION

Flight Status: Arrived
Operator:
Alaska Airlines
More flights by this operator :: More flights under this callsign
Pilot: Colin A. (19898)
Aircraft: MCDONNELL-DOUGLAS MD-82
(MD82)
More flights by this aircraft type
Origin: KSAN San Diego Intl-Lindbergh
United States
Destination: KSEA Seattle-Tacoma Intl
United States
More flights between these airports :: More routes between these airports
Route: +PADRZ2 EHF SHIMR LKV BTG HAWKZ7
File this flight plan on PilotEdge
Remarks: PBN / A1B2 DOF / 180930 REG / N882SB EET / KZOA0034 KZSE0115 OPR / ASA PER / C RMK / TCAS SIMBRIEF
Altitude:
(Current/Filed)
36,000ft
Speed:
(Current/Filed)
445kts
Departed: 30-Sep-18 05:00 PM
Arrived: 30-Sep-18 07:31 PM
Distance/Time
Traveled:
913nm/2:31
Distance/Time
To Go:
Arrived

Flight Plot

Page will automatically refresh every two minutes.

Flight plan parsing failed; only flown route is shown


Map Options




Map Legend


Flown Route
Filed Route
Departure Airport
Arrival Airport
Navaid (VOR, NDB)
Fix

Horizontal Profiles

Position Reports

Time Latitude Longitude Heading Altitude Ground
Speed
30-Sep-18 16:22 32.733833 -117.198566 176 24ft 0kts
30-Sep-18 16:23 32.733833 -117.198566 176 24ft 0kts
30-Sep-18 16:24 32.733833 -117.198566 176 24ft 0kts
30-Sep-18 16:25 32.733833 -117.198566 176 24ft 0kts
30-Sep-18 16:26 32.733833 -117.198566 176 24ft 0kts
30-Sep-18 16:27 32.733833 -117.198566 176 24ft 0kts
30-Sep-18 16:28 32.733833 -117.198566 176 24ft 0kts
30-Sep-18 16:29 32.733833 -117.198566 176 24ft 0kts
30-Sep-18 16:30 32.733833 -117.198566 176 24ft 0kts
30-Sep-18 16:31 32.733833 -117.198566 176 24ft 0kts
30-Sep-18 16:32 32.733833 -117.198566 176 24ft 0kts
30-Sep-18 16:33 32.733833 -117.198566 176 24ft 0kts
30-Sep-18 16:34 32.733833 -117.198566 176 24ft 0kts
30-Sep-18 16:35 32.733833 -117.198566 176 24ft 0kts
30-Sep-18 16:36 32.733833 -117.198566 176 24ft 0kts
30-Sep-18 16:37 32.733833 -117.198566 176 24ft 0kts
30-Sep-18 16:38 32.733833 -117.198566 176 24ft 0kts
30-Sep-18 16:39 32.733833 -117.198566 176 24ft 0kts
30-Sep-18 16:40 32.733833 -117.198566 176 24ft 0kts
30-Sep-18 16:41 32.733833 -117.198566 176 24ft 0kts
30-Sep-18 16:42 32.733833 -117.198566 176 24ft 0kts
30-Sep-18 16:43 32.733833 -117.198566 176 24ft 0kts
30-Sep-18 16:44 32.733833 -117.198566 176 24ft 0kts
30-Sep-18 16:45 32.733833 -117.198566 176 24ft 0kts
30-Sep-18 16:46 32.733833 -117.198566 176 24ft 0kts
30-Sep-18 16:47 32.733833 -117.198566 176 24ft 0kts
30-Sep-18 16:48 32.733833 -117.198566 176 24ft 0kts
30-Sep-18 16:49 32.733995 -117.198617 182 24ft 2kts
30-Sep-18 16:50 32.734570 -117.198574 157 24ft 2kts
30-Sep-18 16:51 32.734778 -117.198883 105 24ft 0kts
30-Sep-18 16:52 32.734777 -117.198880 105 24ft 0kts
30-Sep-18 16:53 32.734777 -117.198877 105 24ft 0kts
30-Sep-18 16:54 32.734776 -117.198874 105 24ft 0kts
30-Sep-18 16:55 32.734775 -117.198871 105 24ft 0kts
30-Sep-18 16:56 32.733258 -117.192528 105 24ft 39kts
30-Sep-18 16:57 32.730332 -117.180562 107 24ft 34kts
30-Sep-18 16:58 32.729533 -117.176791 74 24ft 0kts
30-Sep-18 16:59 32.729534 -117.176788 74 24ft 0kts
30-Sep-18 17:00 32.729534 -117.176785 74 24ft 0kts
30-Sep-18 17:01 32.729766 -117.175939 47 24ft 14kts
30-Sep-18 17:02 32.737543 -117.206565 285 255ft 156kts
30-Sep-18 17:03 32.760098 -117.254377 305 1300ft 182kts
30-Sep-18 17:04 32.794189 -117.310933 304 2903ft 252kts
30-Sep-18 17:05 32.838037 -117.378125 306 4963ft 257kts
30-Sep-18 17:06 32.881978 -117.446256 305 6176ft 263kts
30-Sep-18 17:07 32.926521 -117.515526 305 7353ft 264kts
30-Sep-18 17:08 32.972020 -117.586409 305 8389ft 272kts
30-Sep-18 17:09 33.019610 -117.660741 305 9607ft 293kts
30-Sep-18 17:10 33.071924 -117.738087 313 10626ft 315kts
30-Sep-18 17:11 33.140655 -117.808563 318 11670ft 335kts
30-Sep-18 17:12 33.214226 -117.881948 318 12752ft 353kts
30-Sep-18 17:13 33.291265 -117.956907 318 14078ft 360kts
30-Sep-18 17:14 33.369648 -118.033167 317 15451ft 364kts
30-Sep-18 17:15 33.448770 -118.110805 317 16758ft 370kts
30-Sep-18 17:16 33.529069 -118.189349 317 18097ft 375kts
30-Sep-18 17:17 33.616120 -118.261595 330 19424ft 388kts
30-Sep-18 17:18 33.716278 -118.314206 332 20615ft 397kts
30-Sep-18 17:19 33.818818 -118.367452 333 21785ft 405kts
30-Sep-18 17:20 33.923690 -118.419763 332 22837ft 411kts
30-Sep-18 17:21 34.031924 -118.468406 343 23726ft 423kts
30-Sep-18 17:22 34.150244 -118.485591 350 24532ft 433kts
30-Sep-18 17:23 34.270494 -118.500121 348 25263ft 436kts
30-Sep-18 17:24 34.391807 -118.518661 347 25881ft 440kts
30-Sep-18 17:25 34.513291 -118.538348 347 26486ft 443kts
30-Sep-18 17:26 34.635847 -118.557037 347 27448ft 436kts
30-Sep-18 17:27 34.754125 -118.574929 346 28932ft 424kts
30-Sep-18 17:28 34.870170 -118.593422 346 30428ft 417kts
30-Sep-18 17:29 34.984161 -118.610321 345 31918ft 408kts
30-Sep-18 17:30 35.075771 -118.669659 307 33416ft 360kts
30-Sep-18 17:31 35.151166 -118.755943 310 32966ft 404kts
30-Sep-18 17:32 35.242953 -118.848685 313 32791ft 430kts
30-Sep-18 17:33 35.334597 -118.941283 312 33496ft 427kts
30-Sep-18 17:34 35.425738 -119.034652 312 33960ft 430kts
30-Sep-18 17:35 35.528004 -119.113162 331 33898ft 446kts
30-Sep-18 17:36 35.648404 -119.156008 338 33891ft 453kts
30-Sep-18 17:37 35.769824 -119.195907 336 33886ft 451kts
30-Sep-18 17:38 35.890624 -119.238818 336 33891ft 451kts
30-Sep-18 17:39 36.011281 -119.282035 336 33899ft 451kts
30-Sep-18 17:40 36.131294 -119.324449 336 33901ft 448kts
30-Sep-18 17:41 36.251312 -119.367514 336 33898ft 448kts
30-Sep-18 17:42 36.370975 -119.410359 336 33896ft 448kts
30-Sep-18 17:43 36.490848 -119.453212 337 33899ft 448kts
30-Sep-18 17:44 36.610506 -119.495833 336 33904ft 448kts
30-Sep-18 17:45 36.729971 -119.538775 336 33907ft 446kts
30-Sep-18 17:46 36.849171 -119.581566 336 33909ft 447kts
30-Sep-18 17:47 36.968371 -119.624470 336 33912ft 445kts
30-Sep-18 17:48 37.087151 -119.667730 336 33921ft 443kts
30-Sep-18 17:49 37.205693 -119.710987 336 33932ft 443kts
30-Sep-18 17:50 37.323778 -119.753740 336 33933ft 441kts
30-Sep-18 17:51 37.441876 -119.797221 336 33947ft 440kts
30-Sep-18 17:52 37.559260 -119.840522 336 33956ft 440kts
30-Sep-18 17:53 37.676755 -119.883355 336 33947ft 439kts
30-Sep-18 17:54 37.793468 -119.926541 336 33942ft 437kts
30-Sep-18 17:55 37.910287 -119.970105 339 33957ft 440kts
30-Sep-18 17:56 38.010044 -119.998879 339 33986ft 439kts
30-Sep-18 17:57 38.145979 -120.050952 334 34028ft 435kts
30-Sep-18 17:58 38.261903 -120.096121 343 34038ft 443kts
30-Sep-18 17:59 38.365149 -120.109158 350 34046ft 449kts
30-Sep-18 18:00 38.510775 -120.118498 350 34051ft 449kts
30-Sep-18 18:01 38.614402 -120.127632 349 34050ft 447kts
30-Sep-18 18:02 38.738726 -120.139705 349 34071ft 447kts
30-Sep-18 18:03 38.862781 -120.150633 349 34088ft 447kts
30-Sep-18 18:04 38.986415 -120.162394 349 34090ft 446kts
30-Sep-18 18:05 39.110532 -120.174158 349 34090ft 446kts
30-Sep-18 18:06 39.234008 -120.185066 349 34093ft 445kts
30-Sep-18 18:07 39.357447 -120.196373 349 34093ft 444kts
30-Sep-18 18:08 39.480828 -120.207441 349 34079ft 444kts
30-Sep-18 18:09 39.604013 -120.218198 349 34087ft 443kts
30-Sep-18 18:10 39.726803 -120.229674 349 34078ft 443kts
30-Sep-18 18:11 39.849577 -120.241646 348 34066ft 442kts
30-Sep-18 18:12 39.972175 -120.253719 349 34052ft 442kts
30-Sep-18 18:13 40.095078 -120.264283 349 34033ft 441kts
30-Sep-18 18:14 40.217849 -120.276011 349 34018ft 441kts
30-Sep-18 18:15 40.340076 -120.287954 349 34017ft 440kts
30-Sep-18 18:16 40.462483 -120.299293 349 34015ft 440kts
30-Sep-18 18:17 40.584657 -120.310971 349 34014ft 439kts
30-Sep-18 18:18 40.706374 -120.322963 350 34014ft 438kts
30-Sep-18 18:19 40.827657 -120.334197 350 34013ft 437kts
30-Sep-18 18:20 40.948730 -120.345665 351 34013ft 435kts
30-Sep-18 18:21 41.069475 -120.357416 351 34014ft 434kts
30-Sep-18 18:22 41.189797 -120.369046 351 34015ft 432kts
30-Sep-18 18:23 41.309641 -120.380515 352 34015ft 431kts
30-Sep-18 18:24 41.429044 -120.392335 352 34015ft 429kts
30-Sep-18 18:25 41.548065 -120.404055 352 34015ft 428kts
30-Sep-18 18:26 41.666844 -120.415469 353 34015ft 428kts
30-Sep-18 18:27 41.785371 -120.426185 352 34015ft 427kts
30-Sep-18 18:28 41.904101 -120.438269 352 34014ft 426kts
30-Sep-18 18:29 42.022422 -120.450670 353 34013ft 426kts
30-Sep-18 18:30 42.140267 -120.461780 353 34012ft 424kts
30-Sep-18 18:31 42.258093 -120.472752 353 34011ft 424kts
30-Sep-18 18:32 42.375706 -120.485234 352 34010ft 424kts
30-Sep-18 18:33 42.493641 -120.496890 348 34008ft 421kts
30-Sep-18 18:34 42.600826 -120.556430 329 34009ft 417kts
30-Sep-18 18:35 42.704170 -120.627303 332 34007ft 417kts
30-Sep-18 18:36 42.809999 -120.692642 333 34005ft 416kts
30-Sep-18 18:37 42.915992 -120.757151 333 34004ft 417kts
30-Sep-18 18:38 43.021501 -120.821157 333 34003ft 415kts
30-Sep-18 18:39 43.127599 -120.885489 333 34001ft 415kts
30-Sep-18 18:40 43.232584 -120.950925 332 33999ft 414kts
30-Sep-18 18:41 43.337852 -121.015915 333 33997ft 414kts
30-Sep-18 18:42 43.442800 -121.081184 332 33995ft 413kts
30-Sep-18 18:43 43.547506 -121.146787 332 33993ft 414kts
30-Sep-18 18:44 43.652107 -121.212606 332 33983ft 413kts
30-Sep-18 18:45 43.756917 -121.278305 332 33986ft 413kts
30-Sep-18 18:46 43.861771 -121.343829 332 33985ft 413kts
30-Sep-18 18:47 43.966578 -121.409298 332 33985ft 413kts
30-Sep-18 18:48 44.070755 -121.475873 332 33985ft 409kts
30-Sep-18 18:49 44.174892 -121.542083 332 33977ft 411kts
30-Sep-18 18:50 44.278520 -121.608547 332 33976ft 411kts
30-Sep-18 18:51 44.382412 -121.675525 332 33962ft 411kts
30-Sep-18 18:52 44.486056 -121.742256 332 33956ft 411kts
30-Sep-18 18:53 44.590057 -121.808768 332 33954ft 409kts
30-Sep-18 18:54 44.693314 -121.875088 332 33951ft 410kts
30-Sep-18 18:55 44.797015 -121.942737 331 33947ft 408kts
30-Sep-18 18:56 44.900267 -122.009849 331 33943ft 407kts
30-Sep-18 18:57 45.003203 -122.077647 331 33937ft 408kts
30-Sep-18 18:58 45.105816 -122.145105 331 33934ft 407kts
30-Sep-18 18:59 45.208445 -122.212236 331 33932ft 406kts
30-Sep-18 19:00 45.311001 -122.279270 330 33931ft 405kts
30-Sep-18 19:01 45.412858 -122.347175 330 33928ft 404kts
30-Sep-18 19:02 45.514737 -122.415746 330 33926ft 404kts
30-Sep-18 19:03 45.617804 -122.480485 331 33925ft 404kts
30-Sep-18 19:04 45.718569 -122.550384 329 33924ft 402kts
30-Sep-18 19:05 45.826199 -122.597950 344 33922ft 410kts
30-Sep-18 19:06 45.938965 -122.626085 345 33921ft 412kts
30-Sep-18 19:07 46.052372 -122.652870 345 33507ft 413kts
30-Sep-18 19:08 46.165729 -122.677285 346 31034ft 415kts
30-Sep-18 19:09 46.280581 -122.700378 347 28347ft 410kts
30-Sep-18 19:10 46.391825 -122.712988 354 25739ft 394kts
30-Sep-18 19:11 46.499000 -122.714890 354 23388ft 377kts
30-Sep-18 19:12 46.605127 -122.718659 354 21076ft 386kts
30-Sep-18 19:13 46.709677 -122.722766 354 18775ft 365kts
30-Sep-18 19:14 46.805842 -122.712726 23 17777ft 366kts
30-Sep-18 19:15 46.886237 -122.619252 40 15318ft 363kts
30-Sep-18 19:16 46.959172 -122.536331 20 14633ft 314kts
30-Sep-18 19:17 47.044680 -122.497272 12 13315ft 318kts
30-Sep-18 19:18 47.131158 -122.471732 3 11323ft 319kts
30-Sep-18 19:19 47.213768 -122.459689 1 10592ft 294kts
30-Sep-18 19:20 47.296298 -122.449949 2 9604ft 299kts
30-Sep-18 19:21 47.339863 -122.444390 2 8601ft 298kts
30-Sep-18 19:22 47.417941 -122.441428 356 7501ft 273kts
30-Sep-18 19:23 47.494242 -122.443173 356 6001ft 255kts
30-Sep-18 19:24 47.564162 -122.443790 357 5950ft 252kts
30-Sep-18 19:25 47.634943 -122.443887 358 4469ft 254kts
30-Sep-18 19:26 47.695513 -122.419086 67 3972ft 229kts
30-Sep-18 19:27 47.690435 -122.332784 138 3972ft 204kts
30-Sep-18 19:28 47.638299 -122.306876 184 3825ft 202kts
30-Sep-18 19:29 47.588456 -122.310822 177 2785ft 153kts
30-Sep-18 19:30 47.551276 -122.310321 178 2171ft 129kts
30-Sep-18 19:31 47.514932 -122.310594 179 1459ft 128kts
30-Sep-18 19:32 47.478861 -122.311014 179 781ft 132kts
30-Sep-18 19:33 47.447152 -122.311167 177 442ft 30kts
30-Sep-18 19:34 47.443565 -122.306643 90 442ft 0kts
30-Sep-18 19:35 47.441825 -122.305579 90 442ft 13kts
30-Sep-18 19:36 47.441823 -122.304596 89 442ft 0kts
30-Sep-18 19:37 47.441823 -122.304596 89 442ft 0kts

Navigation Log

Ident Type
Flight plan parsing failed, navigation log unavailable